createdAt,value
2019-04-04T00:01:03.475Z,100145.39
2019-04-04T00:03:10.922Z,100135.25
2019-04-04T00:05:18.376Z,100134.90
2019-04-04T00:07:27.084Z,100131.38
2019-04-04T00:09:34.944Z,100126.91
2019-04-04T00:11:42.442Z,100128.75
2019-04-04T00:13:49.929Z,100126.07
2019-04-04T00:15:57.309Z,100123.85
2019-04-04T00:18:04.795Z,100126.33
2019-04-04T00:20:12.505Z,100117.20
2019-04-04T00:22:19.882Z,100118.25
2019-04-04T00:24:27.378Z,100121.36
2019-04-04T00:26:34.809Z,100120.03
2019-04-04T00:28:42.216Z,100122.27
2019-04-04T00:30:49.788Z,100123.64
2019-04-04T00:32:57.267Z,100125.55
2019-04-04T00:35:04.743Z,100127.38
2019-04-04T00:37:12.023Z,100122.59
2019-04-04T00:39:19.294Z,100121.47
2019-04-04T00:41:26.573Z,100118.47
2019-04-04T00:43:33.789Z,100127.77
2019-04-04T00:45:41.023Z,100130.04
2019-04-04T00:47:48.253Z,100126.27
2019-04-04T00:49:55.584Z,100127.09
2019-04-04T00:52:02.770Z,100126.11
2019-04-04T00:54:10.007Z,100123.48
2019-04-04T00:56:18.063Z,100118.95
2019-04-04T00:58:25.925Z,100121.58
2019-04-04T01:00:33.342Z,100119.54
2019-04-04T01:02:40.519Z,100119.21
2019-04-04T01:04:47.818Z,100111.67
2019-04-04T01:06:55.116Z,100115.94
2019-04-04T01:09:02.438Z,100118.17
2019-04-04T01:11:09.617Z,100115.55
2019-04-04T01:13:16.842Z,100112.00
2019-04-04T01:15:24.347Z,100117.38
2019-04-04T01:17:33.031Z,100108.64
2019-04-04T01:19:40.834Z,100110.28
2019-04-04T01:21:48.174Z,100110.86
2019-04-04T01:23:58.023Z,100107.39
2019-04-04T01:26:04.647Z,100105.50
2019-04-04T01:28:12.105Z,100100.52
2019-04-04T01:30:19.818Z,100101.25
2019-04-04T01:32:27.181Z,100094.17
2019-04-04T01:34:34.554Z,100095.20
2019-04-04T01:36:41.752Z,100092.07
2019-04-04T01:38:49.083Z,100087.54
2019-04-04T01:40:56.441Z,100088.85
2019-04-04T01:43:03.738Z,100084.64
2019-04-04T01:45:13.222Z,100083.85
2019-04-04T01:47:20.583Z,100087.91
2019-04-04T01:49:27.924Z,100080.58
2019-04-04T01:51:35.317Z,100084.61
2019-04-04T01:53:43.021Z,100080.02
2019-04-04T01:55:50.381Z,100073.47
2019-04-04T01:57:58.162Z,100070.86
2019-04-04T02:00:07.369Z,100067.30
2019-04-04T02:02:17.679Z,100069.27
2019-04-04T02:04:24.844Z,100063.23
2019-04-04T02:06:32.871Z,100067.77
2019-04-04T02:08:40.295Z,100066.88
2019-04-04T02:10:47.668Z,100059.55
2019-04-04T02:12:55.013Z,100060.61
2019-04-04T02:15:02.457Z,100067.16
2019-04-04T02:17:09.825Z,100062.44
2019-04-04T02:19:17.185Z,100067.38
2019-04-04T02:21:24.550Z,100061.73
2019-04-04T02:23:32.187Z,100065.98
2019-04-04T02:25:39.689Z,100064.34
2019-04-04T02:27:47.063Z,100067.05
2019-04-04T02:29:54.437Z,100060.41
2019-04-04T02:32:04.226Z,100051.81
2019-04-04T02:34:11.566Z,100050.64
2019-04-04T02:36:18.927Z,100055.50
2019-04-04T02:38:28.164Z,100046.25
2019-04-04T02:40:35.400Z,100045.45
2019-04-04T02:42:43.676Z,100042.88
2019-04-04T02:44:51.067Z,100031.86
2019-04-04T02:46:58.489Z,100042.65
2019-04-04T02:49:05.947Z,100046.41
2019-04-04T02:51:13.373Z,100039.08
2019-04-04T02:53:20.747Z,100050.18
2019-04-04T02:55:30.966Z,100047.91
2019-04-04T02:57:41.053Z,100053.47
2019-04-04T02:59:46.664Z,100056.08
2019-04-04T03:01:54.245Z,100053.53
2019-04-04T03:04:01.931Z,100052.64
2019-04-04T03:06:09.403Z,100050.02
2019-04-04T03:08:16.872Z,100046.20
2019-04-04T03:10:24.470Z,100058.59
2019-04-04T03:12:31.846Z,100040.13
2019-04-04T03:14:39.238Z,100049.20
2019-04-04T03:16:46.875Z,100054.94
2019-04-04T03:18:54.291Z,100054.77
2019-04-04T03:21:01.684Z,100054.39
2019-04-04T03:23:09.282Z,100038.75
2019-04-04T03:25:16.732Z,100055.28
2019-04-04T03:27:26.860Z,100049.42
2019-04-04T03:29:37.384Z,100058.19
2019-04-04T03:31:42.533Z,100053.55
2019-04-04T03:33:50.017Z,100049.75
2019-04-04T03:36:00.126Z,100039.69
2019-04-04T03:38:06.558Z,100040.31
2019-04-04T03:40:14.051Z,100041.11
2019-04-04T03:42:21.419Z,100042.47
2019-04-04T03:44:28.807Z,100048.16
2019-04-04T03:46:38.745Z,100049.33
2019-04-04T03:48:49.837Z,100053.13
2019-04-04T03:50:56.984Z,100046.05
2019-04-04T03:53:03.609Z,100043.84
2019-04-04T03:55:11.216Z,100047.89
2019-04-04T03:57:18.790Z,100053.70
2019-04-04T03:59:26.160Z,100057.51
2019-04-04T04:01:33.589Z,100069.27
2019-04-04T04:03:40.986Z,100065.85
2019-04-04T04:05:48.351Z,100069.63
2019-04-04T04:07:55.784Z,100065.49
2019-04-04T04:10:03.289Z,100067.87
2019-04-04T04:12:11.481Z,100065.05
2019-04-04T04:14:21.673Z,100061.84
2019-04-04T04:16:28.198Z,100069.84
2019-04-04T04:18:35.668Z,100062.08
2019-04-04T04:20:43.051Z,100060.19
2019-04-04T04:22:51.534Z,100054.51
2019-04-04T04:25:02.147Z,100055.81
2019-04-04T04:27:08.240Z,100052.52
2019-04-04T04:29:15.697Z,100057.28
2019-04-04T04:31:23.087Z,100060.81
2019-04-04T04:33:30.498Z,100063.47
2019-04-04T04:35:41.281Z,100068.95
2019-04-04T04:37:47.058Z,100063.31
2019-04-04T04:39:54.456Z,100068.88
2019-04-04T04:42:02.012Z,100068.99
2019-04-04T04:44:09.552Z,100056.27
2019-04-04T04:46:17.942Z,100057.92
2019-04-04T04:48:26.001Z,100052.95
2019-04-04T04:50:33.755Z,100054.59
2019-04-04T04:52:41.294Z,100053.30
2019-04-04T04:54:48.746Z,100052.70
2019-04-04T04:56:56.275Z,100048.36
2019-04-04T04:59:03.664Z,100053.47
2019-04-04T05:01:11.059Z,100048.78
2019-04-04T05:03:18.474Z,100054.18
2019-04-04T05:05:26.001Z,100054.02
2019-04-04T05:07:33.472Z,100052.29
2019-04-04T05:09:40.933Z,100048.16
2019-04-04T05:11:50.228Z,100045.88
2019-04-04T05:13:58.838Z,100044.48
2019-04-04T05:16:08.840Z,100040.34
2019-04-04T05:18:16.304Z,100041.53
2019-04-04T05:20:25.566Z,100034.77
2019-04-04T05:22:33.608Z,100035.57
2019-04-04T05:24:40.997Z,100045.22
2019-04-04T05:26:48.387Z,100038.69
2019-04-04T05:28:57.093Z,100034.59
2019-04-04T05:31:04.641Z,100046.87
2019-04-04T05:33:12.024Z,100050.12
2019-04-04T05:35:19.438Z,100050.78
2019-04-04T05:37:27.603Z,100058.53
2019-04-04T05:39:35.215Z,100058.69
2019-04-04T05:41:42.604Z,100053.87
2019-04-04T05:43:49.999Z,100054.77
2019-04-04T05:45:57.432Z,100056.97
2019-04-04T05:48:04.850Z,100054.06
2019-04-04T05:50:12.483Z,100054.31
2019-04-04T05:52:19.879Z,100052.91
2019-04-04T05:54:27.380Z,100060.70
2019-04-04T05:56:34.786Z,100045.88
2019-04-04T05:58:44.280Z,100053.92
2019-04-04T06:00:51.756Z,100048.12
2019-04-04T06:02:59.174Z,100056.39
2019-04-04T06:05:07.200Z,100048.69
2019-04-04T06:07:16.368Z,100051.31
2019-04-04T06:09:23.673Z,100045.88
2019-04-04T06:11:31.113Z,100047.27
2019-04-04T06:13:38.530Z,100038.69
2019-04-04T06:15:45.946Z,100040.35
2019-04-04T06:17:53.504Z,100033.45
2019-04-04T06:20:03.891Z,100029.06
2019-04-04T06:22:11.327Z,100030.00
2019-04-04T06:24:18.784Z,100023.50
2019-04-04T06:26:26.122Z,100025.78
2019-04-04T06:28:33.516Z,100029.03
2019-04-04T06:30:43.327Z,100014.18
2019-04-04T06:32:50.209Z,100030.02
2019-04-04T06:34:57.596Z,100018.95
2019-04-04T06:37:05.088Z,100013.70
2019-04-04T06:39:12.529Z,100018.89
2019-04-04T06:41:19.926Z,100014.95
2019-04-04T06:43:27.327Z,100015.81
2019-04-04T06:45:36.008Z,100010.91
2019-04-04T06:47:43.424Z,100015.28
2019-04-04T06:49:50.815Z,100022.38
2019-04-04T06:51:58.254Z,100017.63
2019-04-04T06:54:05.884Z,100008.22
2019-04-04T06:56:13.202Z,100012.03
2019-04-04T06:58:20.559Z,100009.77
2019-04-04T07:00:27.917Z,100016.45
2019-04-04T07:02:35.259Z,100020.47
2019-04-04T07:04:42.681Z,100015.98
2019-04-04T07:06:50.034Z,100022.16
2019-04-04T07:08:57.464Z,100019.23
2019-04-04T07:11:15.491Z,100007.52
2019-04-04T07:13:21.571Z,100003.09
2019-04-04T07:15:23.139Z,100012.67
2019-04-04T07:17:30.516Z,100004.94
2019-04-04T07:19:37.969Z,100005.85
2019-04-04T07:21:45.338Z,100008.73
2019-04-04T07:23:52.737Z,100004.53
2019-04-04T07:26:00.117Z,100001.30
2019-04-04T07:28:07.729Z,100005.12
2019-04-04T07:30:15.578Z,100007.41
2019-04-04T07:32:23.096Z,100001.55
2019-04-04T07:34:30.642Z,100003.59
2019-04-04T07:36:38.074Z,100001.89
2019-04-04T07:38:46.362Z,100007.48
2019-04-04T07:40:53.761Z,100018.06
2019-04-04T07:43:01.229Z,100014.05
2019-04-04T07:45:10.042Z,100017.84
2019-04-04T07:47:17.491Z,100009.39
2019-04-04T07:49:24.935Z,100008.39
2019-04-04T07:51:32.324Z,100013.27
2019-04-04T07:53:39.793Z,100011.23
2019-04-04T07:55:47.459Z,100006.95
2019-04-04T07:57:54.845Z,100003.52
2019-04-04T08:00:02.365Z,100005.67
2019-04-04T08:02:10.183Z,100005.34
2019-04-04T08:04:17.678Z,100003.59
2019-04-04T08:06:25.162Z,100008.30
2019-04-04T08:08:32.708Z,100011.50
2019-04-04T08:10:43.904Z,100003.30
2019-04-04T08:12:53.850Z,100010.45
2019-04-04T08:15:01.315Z,100003.33
2019-04-04T08:17:08.829Z,100003.41
2019-04-04T08:19:16.287Z,99994.06
2019-04-04T08:21:23.923Z,99992.38
2019-04-04T08:23:34.124Z,99988.80
2019-04-04T08:25:43.589Z,99995.39
2019-04-04T08:27:51.532Z,99988.78
2019-04-04T08:30:02.481Z,99992.37
2019-04-04T08:32:09.916Z,99985.03
2019-04-04T08:34:18.721Z,99995.36
2019-04-04T08:36:26.249Z,99994.91
2019-04-04T08:38:33.651Z,99993.91
2019-04-04T08:40:41.069Z,99993.15
2019-04-04T08:42:48.514Z,99980.20
2019-04-04T08:44:55.917Z,99976.14
2019-04-04T08:47:03.315Z,99975.78
2019-04-04T08:49:10.737Z,99977.47
2019-04-04T08:51:18.137Z,99984.23
2019-04-04T08:53:25.633Z,99983.50
2019-04-04T08:55:33.017Z,99987.17
2019-04-04T08:57:40.429Z,99986.34
2019-04-04T08:59:47.958Z,99979.91
2019-04-04T09:01:55.352Z,99976.48
2019-04-04T09:04:02.892Z,99975.01
2019-04-04T09:06:10.402Z,99983.05
2019-04-04T09:08:17.889Z,99976.92
2019-04-04T09:10:25.312Z,99979.92
2019-04-04T09:12:33.055Z,99977.30
2019-04-04T09:14:41.186Z,99981.75
2019-04-04T09:16:49.128Z,99981.38
2019-04-04T09:18:56.613Z,99981.52
2019-04-04T09:21:04.094Z,99978.73
2019-04-04T09:23:11.518Z,99977.14
2019-04-04T09:25:19.075Z,99972.02
2019-04-04T09:27:26.475Z,99968.42
2019-04-04T09:29:33.887Z,99963.73
2019-04-04T09:31:41.353Z,99956.05
2019-04-04T09:33:48.818Z,99952.59
2019-04-04T09:35:56.228Z,99955.95
2019-04-04T09:38:03.785Z,99948.59
2019-04-04T09:40:11.700Z,99951.84
2019-04-04T09:42:19.035Z,99951.66
2019-04-04T09:44:26.499Z,99940.86
2019-04-04T09:46:33.929Z,99942.30
2019-04-04T09:48:41.327Z,99938.15
2019-04-04T09:50:48.658Z,99932.71
2019-04-04T09:52:56.073Z,99936.64
2019-04-04T09:55:03.513Z,99936.05
2019-04-04T09:57:11.008Z,99932.72
2019-04-04T09:59:18.484Z,99924.19
2019-04-04T10:01:25.945Z,99923.01
2019-04-04T10:03:33.423Z,99922.84
2019-04-04T10:05:40.806Z,99926.87
2019-04-04T10:07:48.466Z,99925.55
2019-04-04T10:09:55.809Z,99928.55
2019-04-04T10:12:03.200Z,99924.95
2019-04-04T10:14:10.627Z,99917.13
2019-04-04T10:16:18.036Z,99915.89
2019-04-04T10:18:25.444Z,99910.00
2019-04-04T10:20:32.876Z,99912.44
2019-04-04T10:22:40.420Z,99905.78
2019-04-04T10:24:47.832Z,99909.50
2019-04-04T10:26:55.272Z,99908.45
2019-04-04T10:29:02.673Z,99909.99
2019-04-04T10:31:10.310Z,99900.45
2019-04-04T10:33:17.685Z,99904.95
2019-04-04T10:35:25.468Z,99902.59
2019-04-04T10:37:33.001Z,99902.91
2019-04-04T10:39:40.443Z,99908.66
2019-04-04T10:41:47.934Z,99895.69
2019-04-04T10:43:55.339Z,99905.23
2019-04-04T10:46:02.820Z,99903.28
2019-04-04T10:48:10.239Z,99903.27
2019-04-04T10:50:18.176Z,99899.34
2019-04-04T10:52:25.655Z,99899.98
2019-04-04T10:54:33.022Z,99901.53
2019-04-04T10:56:40.540Z,99900.45
2019-04-04T10:58:47.942Z,99899.05
2019-04-04T11:00:55.359Z,99909.22
2019-04-04T11:03:02.767Z,99902.40
2019-04-04T11:05:11.060Z,99891.64
2019-04-04T11:07:18.502Z,99895.25
2019-04-04T11:09:26.018Z,99888.17
2019-04-04T11:11:34.208Z,99882.91
2019-04-04T11:13:41.703Z,99876.25
2019-04-04T11:15:49.167Z,99880.08
2019-04-04T11:17:56.573Z,99885.59
2019-04-04T11:20:04.200Z,99886.10
2019-04-04T11:22:11.595Z,99885.13
2019-04-04T11:24:19.707Z,99887.30
2019-04-04T11:26:27.432Z,99882.62
2019-04-04T11:28:34.807Z,99870.79
2019-04-04T11:30:42.216Z,99880.75
2019-04-04T11:32:49.827Z,99879.52
2019-04-04T11:34:57.317Z,99876.19
2019-04-04T11:37:04.773Z,99867.45
2019-04-04T11:39:12.276Z,99871.78
2019-04-04T11:41:20.279Z,99865.67
2019-04-04T11:43:27.815Z,99867.38
2019-04-04T11:45:35.228Z,99862.41
2019-04-04T11:47:42.668Z,99856.27
2019-04-04T11:49:50.187Z,99866.20
2019-04-04T11:51:57.782Z,99855.11
2019-04-04T11:54:05.319Z,99854.09
2019-04-04T11:56:12.730Z,99847.28
2019-04-04T11:58:20.138Z,99852.56
2019-04-04T12:00:31.375Z,99852.48
2019-04-04T12:02:38.801Z,99847.59
2019-04-04T12:04:46.581Z,99843.26
2019-04-04T12:06:54.040Z,99838.09
2019-04-04T12:09:01.506Z,99843.25
2019-04-04T12:11:09.151Z,99830.14
2019-04-04T12:13:16.655Z,99823.80
2019-04-04T12:15:24.916Z,99823.58
2019-04-04T12:17:32.793Z,99824.67
2019-04-04T12:19:40.266Z,99824.72
2019-04-04T12:21:48.160Z,99822.83
2019-04-04T12:23:55.739Z,99829.67
2019-04-04T12:26:03.321Z,99821.55
2019-04-04T12:28:11.366Z,99820.92
2019-04-04T12:30:20.813Z,99824.92
2019-04-04T12:32:28.760Z,99823.17
2019-04-04T12:34:36.251Z,99822.82
2019-04-04T12:36:43.931Z,99824.79
2019-04-04T12:38:51.330Z,99818.73
2019-04-04T12:40:58.770Z,99816.66
2019-04-04T12:43:06.313Z,99808.70
2019-04-04T12:45:14.041Z,99796.30
2019-04-04T12:47:21.545Z,99798.41
2019-04-04T12:49:29.068Z,99799.80
2019-04-04T12:51:36.647Z,99798.68
2019-04-04T12:53:44.119Z,99791.95
2019-04-04T12:55:54.012Z,99787.11
2019-04-04T12:58:00.876Z,99799.95
2019-04-04T13:00:09.388Z,99794.61
2019-04-04T13:02:16.925Z,99795.24
2019-04-04T13:04:31.439Z,99791.53
2019-04-04T13:06:33.621Z,99784.45
2019-04-04T13:08:41.156Z,99785.70
2019-04-04T13:10:48.736Z,99787.73
2019-04-04T13:12:56.256Z,99784.09
2019-04-04T13:15:04.000Z,99774.59
2019-04-04T13:17:11.510Z,99773.95
2019-04-04T13:19:19.403Z,99771.69
2019-04-04T13:21:26.900Z,99772.77
2019-04-04T13:23:34.415Z,99769.55
2019-04-04T13:25:41.945Z,99769.89
2019-04-04T13:27:49.501Z,99773.98
2019-04-04T13:29:57.327Z,99765.36
2019-04-04T13:32:04.924Z,99765.69
2019-04-04T13:34:12.353Z,99761.06
2019-04-04T13:36:19.779Z,99768.92
2019-04-04T13:38:27.421Z,99768.78
2019-04-04T13:40:44.735Z,99763.29
2019-04-04T13:42:44.222Z,99760.62
2019-04-04T13:44:52.860Z,99764.16
2019-04-04T13:47:03.212Z,99772.63
2019-04-04T13:49:10.221Z,99763.27
2019-04-04T13:51:20.784Z,99759.02
2019-04-04T13:53:26.790Z,99758.84
2019-04-04T13:55:34.340Z,99764.33
2019-04-04T13:57:41.754Z,99762.86
2019-04-04T13:59:49.179Z,99760.69
2019-04-04T14:01:56.780Z,99754.48
2019-04-04T14:04:04.343Z,99757.78
2019-04-04T14:06:11.914Z,99750.30
2019-04-04T14:08:19.498Z,99744.41
2019-04-04T14:10:27.263Z,99747.05
2019-04-04T14:12:35.209Z,99742.85
2019-04-04T14:14:42.897Z,99737.72
2019-04-04T14:16:50.375Z,99724.19
2019-04-04T14:18:57.873Z,99736.20
2019-04-04T14:21:05.624Z,99732.08
2019-04-04T14:23:13.139Z,99726.51
2019-04-04T14:25:20.622Z,99735.43
2019-04-04T14:27:28.216Z,99732.05
2019-04-04T14:29:35.779Z,99729.14
2019-04-04T14:31:43.257Z,99726.06
2019-04-04T14:33:50.778Z,99724.78
2019-04-04T14:35:58.283Z,99721.31
2019-04-04T14:38:05.992Z,99712.40
2019-04-04T14:40:15.166Z,99718.98
2019-04-04T14:42:22.863Z,99721.40
2019-04-04T14:44:30.789Z,99719.19
2019-04-04T14:46:39.219Z,99721.23
2019-04-04T14:48:47.692Z,99717.45
2019-04-04T14:50:55.187Z,99706.47
2019-04-04T14:53:02.618Z,99720.81
2019-04-04T14:55:10.573Z,99723.33
2019-04-04T14:57:18.153Z,99717.51
2019-04-04T14:59:25.739Z,99721.37
2019-04-04T15:01:35.037Z,99714.34
2019-04-04T15:03:42.599Z,99714.15
2019-04-04T15:05:50.190Z,99716.73
2019-04-04T15:08:00.890Z,99716.10
2019-04-04T15:10:08.113Z,99708.58
2019-04-04T15:12:15.594Z,99713.48
2019-04-04T15:14:23.385Z,99709.91
2019-04-04T15:16:31.065Z,99714.69
2019-04-04T15:18:38.691Z,99706.96
2019-04-04T15:20:46.176Z,99710.25
2019-04-04T15:22:53.806Z,99710.38
2019-04-04T15:25:01.332Z,99709.33
2019-04-04T15:27:08.848Z,99713.87
2019-04-04T15:29:16.381Z,99716.23
2019-04-04T15:31:23.858Z,99710.79
2019-04-04T15:33:31.543Z,99712.81
2019-04-04T15:35:38.938Z,99712.23
2019-04-04T15:37:46.445Z,99723.84
2019-04-04T15:39:54.955Z,99717.47
2019-04-04T15:42:02.415Z,99710.30
2019-04-04T15:44:09.876Z,99721.78
2019-04-04T15:46:17.432Z,99714.25
2019-04-04T15:48:24.939Z,99714.03
2019-04-04T15:50:32.507Z,99716.88
2019-04-04T15:52:39.985Z,99709.49
2019-04-04T15:54:47.391Z,99697.71
2019-04-04T15:56:54.873Z,99701.70
2019-04-04T15:59:02.366Z,99703.55
2019-04-04T16:01:09.911Z,99705.23
2019-04-04T16:03:17.337Z,99707.05
2019-04-04T16:05:24.966Z,99703.09
2019-04-04T16:07:32.633Z,99703.98
2019-04-04T16:09:40.202Z,99702.07
2019-04-04T16:11:50.014Z,99705.64
2019-04-04T16:13:57.659Z,99701.85
2019-04-04T16:16:05.343Z,99704.69
2019-04-04T16:18:13.220Z,99701.59
2019-04-04T16:20:21.795Z,99703.84
2019-04-04T16:22:29.592Z,99705.80
2019-04-04T16:24:37.234Z,99708.45
2019-04-04T16:26:45.093Z,99708.02
2019-04-04T16:28:52.858Z,99715.51
2019-04-04T16:31:00.985Z,99712.34
2019-04-04T16:33:08.698Z,99716.73
2019-04-04T16:35:16.475Z,99720.67
2019-04-04T16:37:24.051Z,99723.48
2019-04-04T16:39:35.151Z,99721.67
2019-04-04T16:41:41.593Z,99717.96
2019-04-04T16:43:49.633Z,99726.91
2019-04-04T16:45:57.910Z,99722.22
2019-04-04T16:48:05.863Z,99718.95
2019-04-04T16:50:14.635Z,99721.23
2019-04-04T16:52:22.261Z,99721.88
2019-04-04T16:54:30.120Z,99730.22
2019-04-04T16:56:37.652Z,99717.79
2019-04-04T16:58:45.488Z,99722.98
2019-04-04T17:00:53.546Z,99729.88
2019-04-04T17:03:01.416Z,99722.89
2019-04-04T17:05:10.895Z,99728.80
2019-04-04T17:07:19.027Z,99736.30
2019-04-04T17:09:27.358Z,99738.46
2019-04-04T17:11:36.794Z,99741.95
2019-04-04T17:13:47.038Z,99746.56
2019-04-04T17:15:56.244Z,99749.21
2019-04-04T17:18:04.959Z,99749.58
2019-04-04T17:20:16.262Z,99747.66
2019-04-04T17:22:25.526Z,99753.92
2019-04-04T17:24:35.296Z,99746.32
2019-04-04T17:26:44.215Z,99758.62
2019-04-04T17:28:53.880Z,99757.77
2019-04-04T17:31:02.217Z,99758.38
2019-04-04T17:33:10.497Z,99753.91
2019-04-04T17:35:18.886Z,99756.18
2019-04-04T17:37:26.815Z,99758.48
2019-04-04T17:39:34.746Z,99754.45
2019-04-04T17:41:42.696Z,99762.79
2019-04-04T17:43:50.611Z,99770.72
2019-04-04T17:45:58.790Z,99772.78
2019-04-04T17:48:06.431Z,99774.05
2019-04-04T17:50:18.728Z,99773.63
2019-04-04T17:52:26.791Z,99775.09
2019-04-04T17:54:35.010Z,99784.12
2019-04-04T17:56:43.333Z,99786.88
2019-04-04T17:58:51.182Z,99784.12
2019-04-04T18:01:00.806Z,99793.70
2019-04-04T18:03:10.599Z,99796.59
2019-04-04T18:05:19.834Z,99801.89
2019-04-04T18:07:27.990Z,99805.38
2019-04-04T18:09:36.135Z,99804.64
2019-04-04T18:11:43.830Z,99810.00
2019-04-04T18:13:51.450Z,99800.03
2019-04-04T18:15:59.214Z,99808.03
2019-04-04T18:18:07.079Z,99806.55
2019-04-04T18:20:15.302Z,99810.19
2019-04-04T18:22:23.000Z,99808.13
2019-04-04T18:24:30.772Z,99812.34
2019-04-04T18:26:38.428Z,99818.34
2019-04-04T18:28:46.449Z,99821.85
2019-04-04T18:30:54.501Z,99815.42
2019-04-04T18:33:02.380Z,99818.67
2019-04-04T18:35:10.770Z,99821.05
2019-04-04T18:37:18.437Z,99822.09
2019-04-04T18:39:26.753Z,99820.42
2019-04-04T18:41:34.401Z,99825.61
2019-04-04T18:43:42.692Z,99823.50
2019-04-04T18:45:50.504Z,99828.39
2019-04-04T18:47:58.934Z,99831.19
2019-04-04T18:50:07.393Z,99830.98
2019-04-04T18:52:15.364Z,99835.92
2019-04-04T18:54:22.941Z,99838.31
2019-04-04T18:56:31.051Z,99832.96
2019-04-04T18:58:38.750Z,99833.09
2019-04-04T19:00:46.248Z,99833.97
2019-04-04T19:02:53.883Z,99842.13
2019-04-04T19:05:01.471Z,99832.41
2019-04-04T19:07:09.017Z,99843.72
2019-04-04T19:09:16.986Z,99841.23
2019-04-04T19:11:24.722Z,99840.92
2019-04-04T19:13:43.796Z,99840.23
2019-04-04T19:15:42.755Z,99838.82
2019-04-04T19:17:50.686Z,99839.52
2019-04-04T19:19:59.103Z,99839.69
2019-04-04T19:22:06.970Z,99835.40
2019-04-04T19:24:14.576Z,99840.16
2019-04-04T19:26:22.626Z,99845.12
2019-04-04T19:28:30.268Z,99848.73
2019-04-04T19:30:38.029Z,99844.04
2019-04-04T19:32:45.752Z,99844.95
2019-04-04T19:34:53.571Z,99844.04
2019-04-04T19:37:01.107Z,99846.44
2019-04-04T19:39:15.655Z,99847.81
2019-04-04T19:41:23.092Z,99846.33
2019-04-04T19:43:30.747Z,99851.80
2019-04-04T19:45:38.516Z,99851.17
2019-04-04T19:47:46.502Z,99849.59
2019-04-04T19:49:54.095Z,99851.31
2019-04-04T19:52:01.644Z,99849.30
2019-04-04T19:54:09.735Z,99849.22
2019-04-04T19:56:17.333Z,99852.52
2019-04-04T19:58:25.020Z,99850.14
2019-04-04T20:00:32.766Z,99853.27
2019-04-04T20:02:40.585Z,99855.95
2019-04-04T20:04:48.178Z,99851.99
2019-04-04T20:06:55.679Z,99850.28
2019-04-04T20:09:05.077Z,99850.27
2019-04-04T20:11:12.589Z,99858.11
2019-04-04T20:13:30.213Z,99865.59
2019-04-04T20:15:29.328Z,99863.16
2019-04-04T20:17:36.753Z,99861.27
2019-04-04T20:19:44.228Z,99859.02
2019-04-04T20:21:51.785Z,99859.11
2019-04-04T20:23:59.383Z,99858.58
2019-04-04T20:26:07.220Z,99855.24
2019-04-04T20:28:15.159Z,99863.05
2019-04-04T20:30:39.254Z,99858.79
2019-04-04T20:32:46.804Z,99860.86
2019-04-04T20:34:54.352Z,99856.63
2019-04-04T20:37:02.038Z,99863.02
2019-04-04T20:39:10.227Z,99861.34
2019-04-04T20:41:17.823Z,99868.05
2019-04-04T20:43:25.323Z,99865.87
2019-04-04T20:45:33.089Z,99870.03
2019-04-04T20:47:40.669Z,99863.25
2019-04-04T20:49:48.268Z,99866.00
2019-04-04T20:51:55.992Z,99872.51
2019-04-04T20:54:03.675Z,99875.73
2019-04-04T20:56:11.337Z,99874.96
2019-04-04T20:58:18.928Z,99878.56
2019-04-04T21:00:26.559Z,99882.70
2019-04-04T21:02:34.181Z,99881.09
2019-04-04T21:04:41.757Z,99891.55
2019-04-04T21:06:49.235Z,99886.39
2019-04-04T21:08:56.810Z,99881.01
2019-04-04T21:11:04.505Z,99884.04
2019-04-04T21:13:12.435Z,99883.28
2019-04-04T21:15:20.845Z,99880.23
2019-04-04T21:17:28.996Z,99882.88
2019-04-04T21:19:36.451Z,99885.99
2019-04-04T21:21:43.971Z,99891.38
2019-04-04T21:23:51.489Z,99885.80
2019-04-04T21:25:59.050Z,99887.23
2019-04-04T21:28:06.804Z,99893.98
2019-04-04T21:30:14.562Z,99889.28
2019-04-04T21:32:22.087Z,99895.12
2019-04-04T21:34:29.504Z,99899.27
2019-04-04T21:36:36.902Z,99898.69
2019-04-04T21:38:44.275Z,99905.45
2019-04-04T21:40:51.661Z,99907.23
2019-04-04T21:42:59.116Z,99900.00
2019-04-04T21:45:08.258Z,99904.04
2019-04-04T21:47:15.660Z,99901.69
2019-04-04T21:49:23.102Z,99904.04
2019-04-04T21:51:30.570Z,99913.55
2019-04-04T21:53:38.067Z,99915.94
2019-04-04T21:55:45.518Z,99919.26
2019-04-04T21:57:53.068Z,99922.01
2019-04-04T22:00:00.831Z,99915.09
2019-04-04T22:02:08.743Z,99923.55
2019-04-04T22:04:16.127Z,99925.63
2019-04-04T22:06:23.537Z,99925.03
2019-04-04T22:08:30.894Z,99917.05
2019-04-04T22:10:38.426Z,99921.84
2019-04-04T22:12:45.829Z,99915.92
2019-04-04T22:14:53.234Z,99917.33
2019-04-04T22:17:00.628Z,99921.39
2019-04-04T22:19:08.193Z,99912.80
2019-04-04T22:21:15.776Z,99914.88
2019-04-04T22:23:23.371Z,99918.15
2019-04-04T22:25:30.751Z,99924.23
2019-04-04T22:27:38.293Z,99924.37
2019-04-04T22:29:45.692Z,99919.45
2019-04-04T22:31:53.041Z,99920.78
2019-04-04T22:34:00.550Z,99905.61
2019-04-04T22:36:07.911Z,99921.34
2019-04-04T22:38:15.360Z,99925.75
2019-04-04T22:40:22.719Z,99925.48
2019-04-04T22:42:30.196Z,99919.59
2019-04-04T22:44:37.681Z,99922.85
2019-04-04T22:46:45.069Z,99926.72
2019-04-04T22:48:52.546Z,99930.36
2019-04-04T22:50:59.958Z,99932.31
2019-04-04T22:53:07.494Z,99924.02
2019-04-04T22:55:15.000Z,99922.91
2019-04-04T22:57:22.445Z,99927.88
2019-04-04T22:59:29.884Z,99927.56
2019-04-04T23:01:37.282Z,99927.02
2019-04-04T23:03:44.679Z,99926.54
2019-04-04T23:05:52.041Z,99921.43
2019-04-04T23:07:59.467Z,99926.03
2019-04-04T23:10:08.002Z,99932.14
2019-04-04T23:12:15.335Z,99933.32
2019-04-04T23:14:22.692Z,99931.27
2019-04-04T23:16:30.138Z,99929.55
2019-04-04T23:18:37.496Z,99919.36
2019-04-04T23:20:44.868Z,99916.95
2019-04-04T23:22:53.334Z,99919.43
2019-04-04T23:25:00.811Z,99912.50
2019-04-04T23:27:08.263Z,99914.83
2019-04-04T23:29:15.585Z,99910.48
2019-04-04T23:31:22.946Z,99914.80
2019-04-04T23:33:30.339Z,99912.87
2019-04-04T23:35:37.722Z,99905.74
2019-04-04T23:37:45.917Z,99912.80
2019-04-04T23:39:53.378Z,99908.34
2019-04-04T23:42:00.760Z,99913.38
2019-04-04T23:44:08.144Z,99915.68
2019-04-04T23:46:15.587Z,99914.77
2019-04-04T23:48:22.947Z,99918.20
2019-04-04T23:50:30.360Z,99918.82
2019-04-04T23:52:37.759Z,99912.64
2019-04-04T23:54:45.253Z,99911.18
2019-04-04T23:56:52.715Z,99915.45
2019-04-04T23:59:00.074Z,99910.44
